LFQA

Details ICAO LFQA
Name Reims Prunay
Region France
Timezone Europe/Paris (UTC+1.0)
Plans Departing 16
Arriving 10
Stats Elevation 313 ft / 95 m (AMSL)
Location 49.208822° 4.157050°
Runways 1
Magnetic Variation 1.109° E
Sunrise 2017-12-17 07:34:38 UTC / 2017-12-17 08:34:38 Local
Sunset 2017-12-17 15:47:05 UTC / 2017-12-17 16:47:05 Local
Advertisement - Login to hide

Runways

ID Width Length Bearing (true) Bearing (mag) Surface Threshold Offset Overrun Length
07 98 ft / 30 m 3,770 ft / 1,149 m 66.27° 65.16° Asphalt 640 ft / 195 m 0 ft / 0 m
25 98 ft / 30 m 3,770 ft / 1,149 m 246.29° 245.18° Asphalt 1,066 ft / 325 m 0 ft / 0 m

Map

Weather


0- 5 10 15 20 25 30 35+ Temperature / ° C

Clouds and Precipitation
Forecast for 2017-12-17 06:00 UTC. Updated 2 hours ago

Ground ~20,000 ft ~40,000 ft Winds

METAR

LFQA 170430Z AUTO VRB01KT 9000 OVC008 00/M01 Q1023

TAF

Not found

Frequencies

Tower 134.92 MHz AFIS
Approach 119.80 MHz REIMS APP
Warning: Do not use this data for real-world aviation or navigation. No guarantee of current accuracy is given.